createdAt,value
2023-02-11T00:02:55.949Z,31.17
2023-02-11T00:06:04.920Z,30.42
2023-02-11T00:09:08.534Z,32.22
2023-02-11T00:12:11.866Z,28.87
2023-02-11T00:15:15.403Z,32.45
2023-02-11T00:18:18.869Z,38.30
2023-02-11T00:21:24.813Z,33.77
2023-02-11T00:24:30.251Z,30.88
2023-02-11T00:27:33.604Z,37.08
2023-02-11T00:30:37.524Z,33.45
2023-02-11T00:33:41.081Z,32.58
2023-02-11T00:36:44.507Z,39.78
2023-02-11T00:39:48.052Z,38.13
2023-02-11T00:42:51.369Z,34.30
2023-02-11T00:45:54.865Z,33.50
2023-02-11T00:48:58.391Z,38.83
2023-02-11T00:52:01.871Z,33.53
2023-02-11T00:55:05.593Z,36.85
2023-02-11T00:58:09.489Z,34.58
2023-02-11T01:01:13.863Z,38.67
2023-02-11T01:04:19.120Z,38.35
2023-02-11T01:07:22.459Z,32.55
2023-02-11T01:10:26.401Z,38.65
2023-02-11T01:13:32.653Z,35.33
2023-02-11T01:16:36.141Z,45.05
2023-02-11T01:19:39.879Z,38.95
2023-02-11T01:22:43.498Z,37.90
2023-02-11T01:25:54.541Z,36.78
2023-02-11T01:29:00.135Z,38.05
2023-02-11T01:32:04.322Z,36.15
2023-02-11T01:35:08.220Z,37.55
2023-02-11T01:38:20.478Z,30.00
2023-02-11T01:41:24.009Z,34.25
2023-02-11T01:44:27.394Z,31.43
2023-02-11T01:47:30.772Z,36.30
2023-02-11T01:50:34.732Z,28.98
2023-02-11T01:53:58.561Z,34.50
2023-02-11T01:57:22.473Z,28.38
2023-02-11T02:00:31.962Z,33.60
2023-02-11T02:03:39.869Z,31.45
2023-02-11T02:07:08.842Z,26.92
2023-02-11T02:10:17.210Z,29.08
2023-02-11T02:13:20.870Z,28.52
2023-02-11T02:16:30.264Z,29.77
2023-02-11T02:19:50.589Z,35.65
2023-02-11T02:23:31.421Z,26.55
2023-02-11T02:27:24.070Z,32.33
2023-02-11T02:30:41.745Z,36.58
2023-02-11T02:33:47.912Z,33.85
2023-02-11T02:37:03.108Z,33.83
2023-02-11T02:40:15.498Z,37.88
2023-02-11T02:43:19.628Z,39.45
2023-02-11T02:46:29.835Z,40.55
2023-02-11T02:49:33.453Z,41.57
2023-02-11T02:52:53.851Z,37.35
2023-02-11T02:56:03.679Z,32.80
2023-02-11T02:59:27.706Z,31.30
2023-02-11T03:02:53.451Z,34.05
2023-02-11T03:06:34.297Z,32.55
2023-02-11T03:09:54.283Z,37.90
2023-02-11T03:12:58.819Z,32.83
2023-02-11T03:16:13.953Z,32.63
2023-02-11T03:19:24.327Z,37.25
2023-02-11T03:22:41.267Z,37.03
2023-02-11T03:26:10.068Z,37.22
2023-02-11T03:29:32.373Z,39.80
2023-02-11T03:32:48.048Z,36.30
2023-02-11T03:36:08.970Z,42.05
2023-02-11T03:39:16.371Z,42.80
2023-02-11T03:42:22.053Z,39.45
2023-02-11T03:45:27.748Z,42.15
2023-02-11T03:48:44.314Z,39.03
2023-02-11T03:51:51.372Z,37.38
2023-02-11T03:54:57.822Z,41.47
2023-02-11T03:58:01.453Z,42.63
2023-02-11T04:01:08.995Z,41.63
2023-02-11T04:04:12.649Z,41.20
2023-02-11T04:07:16.045Z,40.78
2023-02-11T04:10:19.670Z,46.33
2023-02-11T04:13:23.382Z,38.03
2023-02-11T04:16:27.330Z,37.13
2023-02-11T04:19:30.811Z,37.38
2023-02-11T04:22:34.444Z,32.67
2023-02-11T04:25:37.853Z,37.87
2023-02-11T04:28:41.264Z,37.60
2023-02-11T04:31:45.057Z,34.90
2023-02-11T04:34:48.547Z,38.63
2023-02-11T04:37:51.966Z,40.15
2023-02-11T04:40:55.562Z,39.13
2023-02-11T04:43:59.054Z,38.80
2023-02-11T04:47:02.552Z,41.65
2023-02-11T04:50:06.680Z,44.22
2023-02-11T04:53:10.188Z,34.75
2023-02-11T04:56:13.671Z,41.00
2023-02-11T04:59:17.477Z,34.40
2023-02-11T05:02:20.979Z,41.72
2023-02-11T05:05:24.520Z,37.97
2023-02-11T05:08:28.172Z,34.15
2023-02-11T05:11:31.825Z,38.90
2023-02-11T05:14:35.287Z,37.70
2023-02-11T05:17:38.804Z,46.85
2023-02-11T05:20:43.149Z,41.70
2023-02-11T05:23:47.352Z,42.58
2023-02-11T05:26:50.738Z,43.53
2023-02-11T05:29:54.146Z,42.35
2023-02-11T05:32:57.688Z,45.90
2023-02-11T05:36:07.438Z,46.37
2023-02-11T05:39:10.852Z,47.25
2023-02-11T05:42:14.629Z,62.08
2023-02-11T05:45:18.126Z,52.65
2023-02-11T05:48:21.601Z,55.78
2023-02-11T05:51:25.406Z,45.83
2023-02-11T05:54:28.845Z,41.25
2023-02-11T05:57:32.286Z,39.67
2023-02-11T06:00:36.440Z,40.05
2023-02-11T06:03:40.021Z,36.58
2023-02-11T06:06:43.468Z,35.23
2023-02-11T06:09:46.898Z,38.28
2023-02-11T06:12:50.452Z,43.63
2023-02-11T06:15:58.461Z,42.92
2023-02-11T06:19:01.985Z,46.13
2023-02-11T06:22:05.401Z,46.80
2023-02-11T06:25:09.051Z,39.45
2023-02-11T06:28:12.677Z,39.40
2023-02-11T06:31:16.576Z,42.97
2023-02-11T06:34:20.047Z,47.05
2023-02-11T06:37:23.707Z,53.80
2023-02-11T06:40:27.194Z,49.13
2023-02-11T06:43:30.677Z,50.17
2023-02-11T06:46:34.179Z,45.63
2023-02-11T06:49:37.769Z,41.10
2023-02-11T06:52:41.374Z,45.38
2023-02-11T06:55:44.776Z,44.15
2023-02-11T06:58:48.864Z,48.57
2023-02-11T07:01:52.545Z,45.17
2023-02-11T07:04:56.070Z,41.30
2023-02-11T07:07:59.496Z,43.50
2023-02-11T07:11:08.812Z,45.22
2023-02-11T07:14:13.538Z,46.58
2023-02-11T07:17:17.027Z,43.13
2023-02-11T07:20:20.549Z,43.88
2023-02-11T07:23:23.988Z,43.85
2023-02-11T07:26:29.035Z,47.38
2023-02-11T07:29:33.301Z,55.70
2023-02-11T07:32:37.021Z,43.25
2023-02-11T07:35:42.599Z,53.20
2023-02-11T07:38:46.373Z,45.27
2023-02-11T07:41:49.885Z,39.05
2023-02-11T07:44:54.394Z,31.65
2023-02-11T07:47:57.947Z,39.50
2023-02-11T07:51:16.466Z,39.05
2023-02-11T07:54:19.899Z,40.33
2023-02-11T07:57:23.295Z,35.60
2023-02-11T08:00:26.781Z,37.03
2023-02-11T08:03:30.476Z,37.42
2023-02-11T08:06:35.834Z,35.85
2023-02-11T08:09:39.309Z,37.00
2023-02-11T08:12:42.898Z,33.58
2023-02-11T08:15:46.295Z,30.05
2023-02-11T08:18:50.894Z,35.50
2023-02-11T08:21:57.089Z,39.40
2023-02-11T08:25:00.645Z,35.45
2023-02-11T08:28:04.146Z,35.83
2023-02-11T08:31:13.239Z,35.90
2023-02-11T08:34:19.210Z,50.30
2023-02-11T08:37:22.962Z,40.08
2023-02-11T08:40:26.439Z,38.83
2023-02-11T08:43:29.845Z,37.00
2023-02-11T08:46:33.356Z,36.75
2023-02-11T08:49:37.617Z,32.40
2023-02-11T08:52:41.176Z,29.60
2023-02-11T08:55:55.081Z,35.33
2023-02-11T08:58:58.539Z,35.78
2023-02-11T09:02:02.124Z,30.15
2023-02-11T09:05:06.157Z,33.72
2023-02-11T09:08:09.641Z,35.43
2023-02-11T09:11:13.994Z,35.13
2023-02-11T09:14:20.500Z,39.53
2023-02-11T09:17:24.179Z,46.42
2023-02-11T09:20:28.106Z,36.13
2023-02-11T09:23:34.421Z,34.83
2023-02-11T09:26:38.544Z,38.03
2023-02-11T09:29:41.952Z,37.45
2023-02-11T09:32:45.537Z,38.90
2023-02-11T09:35:49.490Z,27.92
2023-02-11T09:38:53.571Z,33.58
2023-02-11T09:42:28.132Z,32.35
2023-02-11T09:45:32.521Z,31.80
2023-02-11T09:48:42.976Z,35.50
2023-02-11T09:51:57.275Z,35.00
2023-02-11T09:55:06.413Z,32.35
2023-02-11T09:58:37.344Z,38.35
2023-02-11T10:01:51.147Z,33.05
2023-02-11T10:05:33.335Z,33.17
2023-02-11T10:09:07.417Z,34.33
2023-02-11T10:12:43.396Z,26.40
2023-02-11T10:15:54.053Z,61.60
2023-02-11T10:19:14.116Z,44.75
2023-02-11T10:22:28.585Z,36.53
2023-02-11T10:25:37.126Z,38.90
2023-02-11T10:28:43.446Z,31.40
2023-02-11T10:31:47.806Z,34.50
2023-02-11T10:34:52.610Z,36.50
2023-02-11T10:37:56.519Z,38.45
2023-02-11T10:41:00.033Z,33.67
2023-02-11T10:44:06.193Z,34.80
2023-02-11T10:47:22.897Z,31.63
2023-02-11T10:50:34.954Z,37.60
2023-02-11T10:53:38.469Z,37.80
2023-02-11T10:56:47.218Z,36.38
2023-02-11T10:59:57.182Z,42.22
2023-02-11T11:03:03.074Z,41.63
2023-02-11T11:06:09.039Z,43.58
2023-02-11T11:09:30.086Z,52.65
2023-02-11T11:12:36.611Z,35.65
2023-02-11T11:15:40.045Z,43.30
2023-02-11T11:18:49.312Z,41.37
2023-02-11T11:21:54.992Z,40.88
2023-02-11T11:25:01.658Z,38.78
2023-02-11T11:28:05.379Z,36.65
2023-02-11T11:31:19.457Z,44.80
2023-02-11T11:34:30.038Z,36.60
2023-02-11T11:37:36.672Z,42.85
2023-02-11T11:40:40.270Z,44.88
2023-02-11T11:44:23.728Z,44.90
2023-02-11T11:48:09.258Z,55.30
2023-02-11T11:51:13.364Z,46.23
2023-02-11T11:54:20.122Z,50.17
2023-02-11T11:57:29.749Z,47.92
2023-02-11T12:00:48.660Z,47.85
2023-02-11T12:03:52.136Z,47.13
2023-02-11T12:07:18.597Z,43.47
2023-02-11T12:10:43.312Z,36.28
2023-02-11T12:14:03.737Z,42.28
2023-02-11T12:17:31.312Z,41.72
2023-02-11T12:20:34.793Z,43.55
2023-02-11T12:24:18.442Z,41.43
2023-02-11T12:27:44.456Z,37.35
2023-02-11T12:30:53.864Z,43.38
2023-02-11T12:34:12.468Z,42.28
2023-02-11T12:37:27.700Z,55.28
2023-02-11T12:40:47.104Z,45.43
2023-02-11T12:43:51.114Z,40.45
2023-02-11T12:47:09.056Z,43.22
2023-02-11T12:50:30.192Z,42.35
2023-02-11T12:53:47.347Z,41.03
2023-02-11T12:57:11.778Z,43.67
2023-02-11T13:00:25.019Z,41.40
2023-02-11T13:03:36.127Z,41.88
2023-02-11T13:06:49.283Z,44.22
2023-02-11T13:09:59.925Z,38.22
2023-02-11T13:13:17.050Z,43.80
2023-02-11T13:16:44.214Z,39.33
2023-02-11T13:19:59.517Z,40.85
2023-02-11T13:23:27.346Z,48.22
2023-02-11T13:27:15.798Z,44.67
2023-02-11T13:30:24.403Z,42.67
2023-02-11T13:33:44.670Z,48.60
2023-02-11T13:36:55.878Z,43.13
2023-02-11T13:40:06.136Z,47.25
2023-02-11T13:43:24.095Z,34.42
2023-02-11T13:46:49.226Z,42.50
2023-02-11T13:49:54.701Z,39.47
2023-02-11T13:53:01.014Z,43.50
2023-02-11T13:56:23.171Z,44.45
2023-02-11T13:59:33.027Z,36.33
2023-02-11T14:02:56.587Z,44.97
2023-02-11T14:06:27.453Z,43.58
2023-02-11T14:09:37.816Z,39.65
2023-02-11T14:12:41.401Z,42.97
2023-02-11T14:15:47.376Z,42.28
2023-02-11T14:18:52.121Z,45.37
2023-02-11T14:22:04.286Z,45.65
2023-02-11T14:25:24.955Z,41.60
2023-02-11T14:28:34.413Z,45.53
2023-02-11T14:31:49.450Z,41.45
2023-02-11T14:35:22.484Z,47.33
2023-02-11T14:38:38.402Z,41.38
2023-02-11T14:41:46.239Z,40.58
2023-02-11T14:44:52.470Z,42.45
2023-02-11T14:48:02.887Z,42.00
2023-02-11T14:51:18.684Z,42.17
2023-02-11T14:54:27.032Z,42.63
2023-02-11T14:57:30.927Z,53.15
2023-02-11T15:00:34.610Z,55.92
2023-02-11T15:03:43.431Z,58.92
2023-02-11T15:06:51.301Z,79.90
2023-02-11T15:09:55.235Z,55.42
2023-02-11T15:13:00.567Z,48.13
2023-02-11T15:16:10.136Z,49.88
2023-02-11T15:19:34.268Z,46.97
2023-02-11T15:22:39.377Z,48.03
2023-02-11T15:25:51.492Z,48.28
2023-02-11T15:28:56.139Z,49.05
2023-02-11T15:32:19.938Z,70.22
2023-02-11T15:35:23.553Z,95.07
2023-02-11T15:38:28.237Z,97.77
2023-02-11T15:41:38.871Z,77.10
2023-02-11T15:44:43.610Z,62.40
2023-02-11T15:47:53.262Z,57.88
2023-02-11T15:51:00.392Z,75.60
2023-02-11T15:54:18.919Z,75.87
2023-02-11T15:57:23.485Z,63.65
2023-02-11T16:00:38.501Z,67.60
2023-02-11T16:03:43.640Z,75.97
2023-02-11T16:06:48.428Z,58.15
2023-02-11T16:09:58.690Z,59.00
2023-02-11T16:13:17.292Z,49.83
2023-02-11T16:16:35.309Z,44.42
2023-02-11T16:19:48.712Z,44.63
2023-02-11T16:22:52.789Z,42.85
2023-02-11T16:26:05.874Z,38.40
2023-02-11T16:29:15.785Z,64.05
2023-02-11T16:32:25.902Z,93.28
2023-02-11T16:35:29.390Z,54.63
2023-02-11T16:38:33.504Z,42.30
2023-02-11T16:41:37.196Z,41.30
2023-02-11T16:44:41.171Z,39.78
2023-02-11T16:47:44.977Z,39.08
2023-02-11T16:50:53.263Z,40.50
2023-02-11T16:53:57.040Z,40.17
2023-02-11T16:57:01.942Z,47.38
2023-02-11T17:00:07.136Z,40.00
2023-02-11T17:03:25.324Z,43.53
2023-02-11T17:06:30.259Z,36.45
2023-02-11T17:09:34.241Z,43.10
2023-02-11T17:12:37.636Z,60.75
2023-02-11T17:15:41.306Z,52.58
2023-02-11T17:18:45.347Z,54.08
2023-02-11T17:21:52.048Z,53.10
2023-02-11T17:24:58.944Z,53.88
2023-02-11T17:28:02.791Z,43.25
2023-02-11T17:31:10.208Z,48.33
2023-02-11T17:34:14.013Z,44.78
2023-02-11T17:37:17.634Z,59.67
2023-02-11T17:40:21.393Z,61.78
2023-02-11T17:43:25.246Z,53.25
2023-02-11T17:46:29.425Z,53.90
2023-02-11T17:49:33.285Z,71.70
2023-02-11T17:52:37.908Z,45.83
2023-02-11T17:55:41.811Z,50.05
2023-02-11T17:58:45.719Z,42.80
2023-02-11T18:01:49.569Z,40.60
2023-02-11T18:04:55.621Z,48.43
2023-02-11T18:07:59.468Z,41.35
2023-02-11T18:11:03.812Z,42.75
2023-02-11T18:14:08.653Z,45.47
2023-02-11T18:17:12.163Z,43.13
2023-02-11T18:20:15.797Z,46.28
2023-02-11T18:23:19.632Z,44.28
2023-02-11T18:26:26.446Z,46.30
2023-02-11T18:29:30.134Z,49.60
2023-02-11T18:32:34.012Z,49.35
2023-02-11T18:35:41.275Z,48.97
2023-02-11T18:38:45.496Z,44.07
2023-02-11T18:41:54.006Z,44.60
2023-02-11T18:44:57.519Z,46.85
2023-02-11T18:48:03.790Z,49.05
2023-02-11T18:51:16.041Z,45.83
2023-02-11T18:54:19.996Z,58.67
2023-02-11T18:57:24.044Z,58.97
2023-02-11T19:00:27.878Z,63.33
2023-02-11T19:03:31.979Z,60.13
2023-02-11T19:06:37.668Z,56.25
2023-02-11T19:09:41.646Z,54.67
2023-02-11T19:12:45.509Z,51.78
2023-02-11T19:15:49.820Z,50.67
2023-02-11T19:18:53.749Z,51.22
2023-02-11T19:21:58.427Z,52.53
2023-02-11T19:25:02.024Z,52.55
2023-02-11T19:28:05.894Z,54.13
2023-02-11T19:31:10.340Z,53.85
2023-02-11T19:34:16.285Z,51.77
2023-02-11T19:37:20.352Z,48.47
2023-02-11T19:40:24.016Z,57.63
2023-02-11T19:43:29.209Z,53.03
2023-02-11T19:46:37.330Z,52.77
2023-02-11T19:49:41.380Z,55.58
2023-02-11T19:52:44.961Z,53.03
2023-02-11T19:55:50.051Z,51.90
2023-02-11T19:58:53.628Z,53.97
2023-02-11T20:01:57.801Z,50.28
2023-02-11T20:05:02.074Z,51.75
2023-02-11T20:08:05.739Z,54.72
2023-02-11T20:11:12.458Z,58.35
2023-02-11T20:14:16.001Z,55.67
2023-02-11T20:17:19.673Z,55.45
2023-02-11T20:20:23.427Z,55.67
2023-02-11T20:23:27.550Z,49.85
2023-02-11T20:26:33.541Z,55.20
2023-02-11T20:29:37.925Z,50.83
2023-02-11T20:32:41.888Z,59.25
2023-02-11T20:35:45.493Z,55.00
2023-02-11T20:38:50.395Z,60.80
2023-02-11T20:41:54.563Z,51.67
2023-02-11T20:44:58.272Z,55.13
2023-02-11T20:48:02.007Z,50.35
2023-02-11T20:51:07.883Z,52.75
2023-02-11T20:54:19.274Z,52.47
2023-02-11T20:57:22.775Z,46.35
2023-02-11T21:00:27.149Z,50.90
2023-02-11T21:03:30.526Z,56.70
2023-02-11T21:06:43.122Z,104.20
2023-02-11T21:09:46.556Z,91.07
2023-02-11T21:12:50.273Z,83.43
2023-02-11T21:15:56.051Z,84.47
2023-02-11T21:19:00.750Z,79.80
2023-02-11T21:22:04.363Z,81.20
2023-02-11T21:25:08.667Z,81.10
2023-02-11T21:28:13.690Z,80.07
2023-02-11T21:31:21.967Z,88.85
2023-02-11T21:34:25.329Z,70.05
2023-02-11T21:37:28.952Z,111.85
2023-02-11T21:40:32.342Z,90.10
2023-02-11T21:43:36.336Z,64.90
2023-02-11T21:46:40.049Z,56.70
2023-02-11T21:49:43.613Z,56.10
2023-02-11T21:52:47.248Z,60.40
2023-02-11T21:55:51.393Z,53.97
2023-02-11T21:58:56.709Z,56.47
2023-02-11T22:02:00.506Z,54.20
2023-02-11T22:05:04.150Z,56.67
2023-02-11T22:08:07.813Z,55.72
2023-02-11T22:11:12.877Z,59.50
2023-02-11T22:14:17.161Z,59.90
2023-02-11T22:17:20.567Z,57.40
2023-02-11T22:20:24.245Z,67.07
2023-02-11T22:23:28.521Z,73.20
2023-02-11T22:26:31.988Z,73.68
2023-02-11T22:29:35.598Z,62.75
2023-02-11T22:32:39.061Z,71.63
2023-02-11T22:35:42.366Z,72.93
2023-02-11T22:38:46.043Z,74.28
2023-02-11T22:41:49.939Z,68.63
2023-02-11T22:44:53.292Z,66.13
2023-02-11T22:47:57.053Z,62.22
2023-02-11T22:51:15.366Z,58.30
2023-02-11T22:54:20.380Z,57.80
2023-02-11T22:57:23.816Z,62.30
2023-02-11T23:00:30.509Z,64.10
2023-02-11T23:03:34.927Z,60.33
2023-02-11T23:06:38.334Z,63.15
2023-02-11T23:09:41.880Z,61.25
2023-02-11T23:12:45.281Z,61.72
2023-02-11T23:15:48.777Z,68.65
2023-02-11T23:18:53.337Z,83.63
2023-02-11T23:21:56.717Z,118.05
2023-02-11T23:25:00.149Z,86.22
2023-02-11T23:28:03.701Z,92.93
2023-02-11T23:31:20.735Z,90.85
2023-02-11T23:34:25.614Z,85.90
2023-02-11T23:37:28.985Z,83.82
2023-02-11T23:40:32.460Z,110.63
2023-02-11T23:43:36.037Z,120.68
2023-02-11T23:46:39.682Z,112.55
2023-02-11T23:49:43.512Z,112.93
2023-02-11T23:52:47.106Z,128.98
2023-02-11T23:55:50.500Z,102.50
2023-02-11T23:58:56.166Z,94.32
